createdAt,value
2022-09-20T00:02:37.604Z,91.50
2022-09-20T00:07:36.225Z,91.50
2022-09-20T00:12:35.345Z,91.57
2022-09-20T00:17:36.451Z,91.61
2022-09-20T00:22:35.589Z,91.63
2022-09-20T00:27:34.137Z,91.82
2022-09-20T00:32:34.095Z,91.81
2022-09-20T00:37:32.663Z,91.82
2022-09-20T00:42:34.373Z,91.88
2022-09-20T00:47:57.786Z,91.91
2022-09-20T00:53:03.295Z,91.91
2022-09-20T00:58:03.045Z,91.90
2022-09-20T01:03:09.687Z,91.94
2022-09-20T01:08:10.515Z,91.94
2022-09-20T01:13:10.063Z,92.03
2022-09-20T01:18:11.477Z,91.92
2022-09-20T01:23:36.073Z,91.82
2022-09-20T01:28:35.380Z,91.79
2022-09-20T01:33:43.102Z,91.83
2022-09-20T01:39:02.921Z,91.90
2022-09-20T01:44:13.585Z,92.11
2022-09-20T01:49:30.540Z,92.17
2022-09-20T01:55:13.925Z,92.11
2022-09-20T02:00:20.020Z,92.08
2022-09-20T02:05:49.205Z,92.14
2022-09-20T02:11:08.450Z,92.13
2022-09-20T02:16:37.773Z,92.20
2022-09-20T02:21:46.619Z,92.21
2022-09-20T02:26:59.286Z,92.21
2022-09-20T02:32:24.484Z,92.25
2022-09-20T02:37:55.408Z,92.32
2022-09-20T02:43:06.399Z,92.49
2022-09-20T02:48:10.485Z,92.49
2022-09-20T02:53:37.709Z,92.50
2022-09-20T02:58:51.890Z,92.51
2022-09-20T03:04:03.834Z,92.58
2022-09-20T03:09:15.183Z,92.57
2022-09-20T03:14:26.157Z,92.46
2022-09-20T03:19:45.899Z,92.41
2022-09-20T03:25:00.608Z,92.35
2022-09-20T03:30:21.425Z,92.30
2022-09-20T03:35:38.759Z,92.29
2022-09-20T03:41:02.217Z,92.21
2022-09-20T03:46:16.900Z,92.20
2022-09-20T03:51:33.092Z,92.10
2022-09-20T03:57:20.379Z,92.10
2022-09-20T04:02:54.757Z,92.04
2022-09-20T04:08:12.813Z,92.04
2022-09-20T04:13:32.427Z,92.00
2022-09-20T04:18:39.926Z,91.92
2022-09-20T04:23:52.509Z,91.83
2022-09-20T04:28:58.745Z,91.80
2022-09-20T04:34:03.429Z,91.74
2022-09-20T04:39:22.021Z,91.69
2022-09-20T04:45:08.113Z,91.63
2022-09-20T04:51:09.725Z,91.60
2022-09-20T04:56:23.208Z,91.53
2022-09-20T05:02:29.466Z,91.44
2022-09-20T05:14:04.631Z,91.32
2022-09-20T05:19:27.024Z,91.31
2022-09-20T05:24:52.945Z,91.29
2022-09-20T05:30:06.803Z,91.22
2022-09-20T05:35:20.928Z,91.20
2022-09-20T05:40:32.081Z,91.16
2022-09-20T05:45:53.919Z,91.11
2022-09-20T05:51:04.049Z,91.10
2022-09-20T05:56:17.153Z,91.00
2022-09-20T06:01:24.828Z,90.94
2022-09-20T06:06:37.517Z,90.90
2022-09-20T06:12:09.857Z,90.82
2022-09-20T06:17:24.854Z,90.81
2022-09-20T06:22:31.394Z,90.71
2022-09-20T06:27:39.394Z,90.50
2022-09-20T06:32:56.120Z,90.35
2022-09-20T06:38:22.027Z,90.30
2022-09-20T06:43:20.811Z,90.29
2022-09-20T06:48:20.261Z,90.21
2022-09-20T06:53:29.204Z,90.07
2022-09-20T06:58:28.796Z,90.03
2022-09-20T07:03:27.596Z,89.92
2022-09-20T07:08:27.085Z,90.08
2022-09-20T07:13:27.668Z,89.89
2022-09-20T07:18:26.786Z,89.80
2022-09-20T07:23:25.277Z,89.61
2022-09-20T07:28:24.685Z,89.62
2022-09-20T07:33:25.170Z,89.48
2022-09-20T07:38:25.176Z,89.48
2022-09-20T07:43:24.456Z,89.43
2022-09-20T07:48:26.017Z,89.43
2022-09-20T07:53:25.163Z,89.62
2022-09-20T07:58:23.825Z,89.59
2022-09-20T08:03:22.671Z,89.64
2022-09-20T08:08:22.245Z,89.15
2022-09-20T08:18:46.411Z,88.65
2022-09-20T08:23:48.376Z,88.63
2022-09-20T08:28:50.127Z,88.45
2022-09-20T08:33:50.553Z,87.71
2022-09-20T08:44:17.392Z,87.71
2022-09-20T08:49:27.560Z,87.73
2022-09-20T08:54:32.169Z,87.95
2022-09-20T08:59:32.141Z,88.50
2022-09-20T09:04:38.991Z,88.54
2022-09-20T09:09:43.743Z,88.69
2022-09-20T09:14:49.720Z,88.99
2022-09-20T09:19:51.645Z,89.17
2022-09-20T09:25:10.932Z,89.22
2022-09-20T09:30:26.474Z,88.97
2022-09-20T09:35:31.938Z,89.18
2022-09-20T09:40:33.230Z,89.50
2022-09-20T09:45:39.894Z,89.50
2022-09-20T09:50:40.261Z,89.35
2022-09-20T09:56:17.097Z,89.02
2022-09-20T10:01:33.627Z,88.94
2022-09-20T10:06:42.320Z,88.81
2022-09-20T10:12:02.166Z,88.47
2022-09-20T10:17:40.490Z,88.10
2022-09-20T10:23:30.460Z,87.89
2022-09-20T10:28:50.753Z,88.15
2022-09-20T10:34:04.905Z,87.44
2022-09-20T10:39:17.978Z,86.61
2022-09-20T10:44:40.189Z,85.58
2022-09-20T10:49:56.793Z,84.50
2022-09-20T10:55:20.523Z,83.32
2022-09-20T11:00:35.477Z,82.75
2022-09-20T11:05:54.481Z,81.58
2022-09-20T11:10:59.761Z,80.35
2022-09-20T11:16:14.913Z,79.52
2022-09-20T11:21:20.787Z,79.50
2022-09-20T11:26:31.939Z,77.40
2022-09-20T11:31:38.818Z,77.70
2022-09-20T11:36:49.180Z,77.54
2022-09-20T11:41:48.571Z,78.10
2022-09-20T11:46:56.149Z,76.96
2022-09-20T11:52:37.106Z,76.90
2022-09-20T11:57:36.955Z,76.34
2022-09-20T12:02:45.231Z,76.08
2022-09-20T12:07:46.785Z,75.65
2022-09-20T12:12:51.388Z,75.69
2022-09-20T12:24:24.340Z,69.86
2022-09-20T12:30:21.875Z,68.84
2022-09-20T12:36:18.264Z,69.40
2022-09-20T12:41:28.330Z,70.41
2022-09-20T12:46:34.446Z,70.98
2022-09-20T12:51:53.911Z,70.46
2022-09-20T12:56:52.995Z,70.92
2022-09-20T13:01:53.537Z,71.38
2022-09-20T13:07:33.448Z,72.09
2022-09-20T13:12:32.967Z,72.17
2022-09-20T13:17:35.694Z,71.65
2022-09-20T13:22:43.618Z,71.79
2022-09-20T13:27:52.726Z,71.16
2022-09-20T13:32:52.569Z,70.94
2022-09-20T13:38:14.490Z,70.39
2022-09-20T13:43:34.434Z,71.35
2022-09-20T13:48:36.327Z,72.75
2022-09-20T13:53:43.763Z,73.72
2022-09-20T13:58:43.329Z,74.29
2022-09-20T14:03:46.087Z,74.74
2022-09-20T14:08:50.915Z,74.79
2022-09-20T14:13:54.412Z,75.01
2022-09-20T14:18:55.415Z,75.32
2022-09-20T14:24:24.885Z,75.57
2022-09-20T14:29:45.011Z,74.98
2022-09-20T14:34:47.109Z,74.07
2022-09-20T14:39:54.295Z,72.64
2022-09-20T14:44:56.973Z,70.71
2022-09-20T14:49:58.161Z,69.81
2022-09-20T14:55:20.945Z,68.84
2022-09-20T15:00:21.486Z,68.87
2022-09-20T15:05:29.789Z,71.28
2022-09-20T15:10:29.768Z,73.63
2022-09-20T15:15:28.890Z,75.71
2022-09-20T15:20:27.919Z,77.18
2022-09-20T15:25:30.149Z,78.35
2022-09-20T15:30:30.537Z,79.11
2022-09-20T15:35:29.103Z,79.45
2022-09-20T15:40:29.227Z,80.10
2022-09-20T15:45:31.155Z,80.68
2022-09-20T15:50:29.873Z,81.11
2022-09-20T15:55:29.568Z,81.64
2022-09-20T16:00:29.697Z,81.90
2022-09-20T16:05:28.395Z,82.24
2022-09-20T16:10:28.248Z,82.63
2022-09-20T16:15:27.925Z,82.85
2022-09-20T16:20:27.627Z,83.11
2022-09-20T16:25:27.146Z,83.29
2022-09-20T16:30:26.257Z,83.42
2022-09-20T16:35:25.572Z,83.68
2022-09-20T16:40:25.375Z,84.08
2022-09-20T16:45:25.480Z,84.39
2022-09-20T16:50:25.558Z,84.48
2022-09-20T16:55:24.286Z,84.57
2022-09-20T17:00:23.824Z,84.69
2022-09-20T17:05:23.407Z,84.90
2022-09-20T17:10:24.391Z,85.07
2022-09-20T17:15:24.713Z,85.20
2022-09-20T17:20:26.261Z,85.37
2022-09-20T17:25:27.690Z,85.57
2022-09-20T17:30:26.731Z,85.73
2022-09-20T17:35:25.238Z,85.95
2022-09-20T17:40:23.759Z,86.14
2022-09-20T17:45:22.691Z,86.26
2022-09-20T17:50:21.833Z,86.32
2022-09-20T17:55:21.297Z,86.45
2022-09-20T18:00:20.733Z,86.59
2022-09-20T18:05:19.634Z,86.65
2022-09-20T18:10:18.911Z,86.75
2022-09-20T18:15:18.359Z,86.86
2022-09-20T18:20:18.233Z,86.89
2022-09-20T18:25:18.110Z,86.99
2022-09-20T18:30:18.231Z,87.13
2022-09-20T18:35:17.180Z,87.24
2022-09-20T18:40:16.799Z,87.27
2022-09-20T18:45:17.618Z,87.34
2022-09-20T18:50:17.032Z,87.43
2022-09-20T18:55:18.119Z,87.51
2022-09-20T19:00:22.791Z,87.56
2022-09-20T19:05:32.406Z,87.67
2022-09-20T19:10:46.240Z,87.71
2022-09-20T19:16:11.739Z,87.79
2022-09-20T19:21:22.998Z,87.82
2022-09-20T19:26:31.213Z,87.81
2022-09-20T19:31:35.056Z,87.81
2022-09-20T19:36:51.511Z,87.79
2022-09-20T19:42:07.368Z,87.71
2022-09-20T19:47:25.157Z,87.68
2022-09-20T19:52:26.388Z,87.64
2022-09-20T19:57:37.564Z,87.60
2022-09-20T20:02:38.127Z,87.60
2022-09-20T20:07:47.714Z,87.72
2022-09-20T20:13:00.953Z,87.82
2022-09-20T20:18:13.309Z,87.82
2022-09-20T20:24:06.806Z,87.80
2022-09-20T20:29:06.121Z,87.88
2022-09-20T20:34:05.401Z,88.00
2022-09-20T20:39:05.158Z,88.14
2022-09-20T20:44:06.528Z,88.21
2022-09-20T20:49:05.859Z,88.29
2022-09-20T20:54:06.686Z,88.35
2022-09-20T20:59:08.320Z,88.43
2022-09-20T21:04:09.515Z,88.46
2022-09-20T21:09:10.468Z,88.57
2022-09-20T21:14:10.306Z,88.61
2022-09-20T21:19:13.189Z,88.64
2022-09-20T21:24:15.342Z,88.74
2022-09-20T21:29:17.431Z,88.88
2022-09-20T21:34:18.522Z,88.92
2022-09-20T21:39:17.931Z,88.93
2022-09-20T21:44:17.681Z,88.90
2022-09-20T21:49:17.910Z,88.92
2022-09-20T21:54:16.538Z,89.07
2022-09-20T21:59:15.759Z,89.20
2022-09-20T22:04:15.634Z,89.22
2022-09-20T22:09:17.700Z,89.16
2022-09-20T22:14:19.950Z,89.22
2022-09-20T22:19:21.042Z,89.21
2022-09-20T22:24:20.811Z,89.40
2022-09-20T22:29:20.085Z,89.51
2022-09-20T22:34:22.751Z,89.55
2022-09-20T22:39:21.786Z,89.64
2022-09-20T22:44:22.751Z,89.71
2022-09-20T22:49:21.573Z,89.94
2022-09-20T22:54:20.661Z,90.11
2022-09-20T22:59:19.181Z,90.11
2022-09-20T23:04:23.659Z,90.09
2022-09-20T23:09:24.461Z,90.10
2022-09-20T23:14:24.353Z,90.19
2022-09-20T23:19:23.269Z,90.21
2022-09-20T23:24:21.889Z,90.30
2022-09-20T23:29:22.832Z,90.39
2022-09-20T23:34:21.576Z,90.48
2022-09-20T23:39:20.737Z,90.43
2022-09-20T23:44:20.026Z,90.49
2022-09-20T23:49:21.788Z,90.50
2022-09-20T23:54:20.581Z,90.53
2022-09-20T23:59:19.134Z,90.60
